首页
METAR-TAF:

METAR-TAF

机场 :

羅馬-菲烏米奇諾機場

罗马菲乌米奇诺, 意大利

纬度: 41-48N, 经度: 012-14E, 海拔: 2米

当前天气观测

该预报发布于17分钟前的14:20 UTC
风速11节,风向东北
温度 23°C
湿度 38%
气压 1015 hPa
能见度10公里或以上
1500米以下无云,无积雨云

METAR: LIRF 231420Z 04011KT CAVOK 23/08 Q1015 NOSIG

时间: 16:37 (14:37 UTC)

预报

该预报发布于3小时和37分钟前的11:00 UTC
预报有效从23日的 12点(UTC)到 24日的 18点(UTC)
风速15节,风向北转东北,有时为25节阵风
能见度10公里或以上
1500米以下无云,无积雨云
成为
从 23日的 15点(UTC)到 23日的 17点(UTC)
风速10节,风向北转东北
成为
从 24日的 09点(UTC)到 24日的 11点(UTC)
风速12节,风向西转西北

TAF: LIRF 231100Z 2312/2418 02015G25KT CAVOK BECMG 2315/2317 02010KT BECMG 2409/2411 29012KT

超过4000个机场的气象观测和天气预报(METAR&TAF报告)。

可查询的气象台以黄色和红色小点在地图上表示。

将鼠标移到小点上方,可查看气象台名称。

然后点击查看天气观测和预报。

如需切换地图:点击带黑十字的绿色按钮放大地图;点击带横线的绿色按钮缩小地图;或者点击绿色箭头查看邻近地区的地图。


METAR-TAF: